Time;durP1;ratioP1;P1;durP2;ratioP2;P2;SDS_P1;SDS_P2;PMS_P1;PMS_P2;Temp;Humidity;BMP_temperature;BMP_pressure;BME280_temperature;BME280_humidity;BME280_pressure;Samples;Min_cycle;Max_cycle;Signal;HPM_P1;HPM_P2
2020/12/20 00:02:13;;;;;;;8.80;7.67;;;5.00;99.90;;;;;;5109904;28;20259;-81
2020/12/20 00:04:39;;;;;;;7.50;6.80;;;4.90;99.90;;;;;;5109661;28;20205;-81
2020/12/20 00:07:08;;;;;;;7.40;6.70;;;4.90;99.90;;;;;;5110123;28;20566;-81
2020/12/20 00:09:34;;;;;;;7.27;6.60;;;4.90;99.90;;;;;;5109607;28;20204;-81
2020/12/20 00:12:03;;;;;;;7.60;6.90;;;4.90;99.90;;;;;;5109645;28;20230;-81
2020/12/20 00:14:30;;;;;;;8.17;7.43;;;4.90;99.90;;;;;;5109977;27;20399;-81
2020/12/20 00:17:01;;;;;;;9.03;7.10;;;4.90;99.90;;;;;;5109214;28;20691;-80
2020/12/20 00:19:28;;;;;;;7.90;7.20;;;4.90;99.90;;;;;;5096055;28;20214;-81
2020/12/20 00:21:56;;;;;;;7.90;7.10;;;4.80;99.90;;;;;;5088855;28;20209;-81
2020/12/20 00:24:23;;;;;;;7.77;7.00;;;4.80;99.90;;;;;;5094121;28;20203;-82
2020/12/20 00:26:49;;;;;;;11.50;10.43;;;4.80;99.90;;;;;;5105815;28;20202;-86
2020/12/20 00:29:17;;;;;;;12.37;11.20;;;4.80;99.90;;;;;;5096825;28;20237;-86
2020/12/20 00:31:43;;;;;;;7.77;7.07;;;5.00;99.90;;;;;;5099712;28;20238;-79
2020/12/20 00:34:10;;;;;;;7.33;6.63;;;5.00;99.90;;;;;;5105235;27;20216;-80
2020/12/20 00:36:36;;;;;;;7.67;6.93;;;5.00;99.90;;;;;;5102571;28;20288;-81
2020/12/20 00:39:05;;;;;;;7.17;6.47;;;5.00;99.90;;;;;;5091477;28;20221;-81
2020/12/20 00:41:31;;;;;;;7.17;6.57;;;4.90;99.90;;;;;;5088030;28;20732;-81
2020/12/20 00:43:58;;;;;;;7.47;6.87;;;4.90;99.90;;;;;;5088617;28;20206;-82
2020/12/20 00:46:25;;;;;;;7.17;6.40;;;4.90;99.90;;;;;;5088620;28;20206;-82
2020/12/20 00:48:52;;;;;;;7.00;6.40;;;4.90;99.90;;;;;;5088805;28;20248;-81
2020/12/20 00:51:18;;;;;;;8.37;7.57;;;4.90;99.90;;;;;;5088878;28;20232;-82
2020/12/20 00:53:45;;;;;;;7.50;6.60;;;4.90;99.90;;;;;;5088764;28;20299;-82
2020/12/20 00:56:14;;;;;;;7.80;7.00;;;4.90;99.90;;;;;;5088565;28;20302;-81
2020/12/20 00:58:41;;;;;;;7.97;7.17;;;4.80;99.90;;;;;;5088619;28;20202;-81
2020/12/20 01:01:08;;;;;;;7.33;6.63;;;4.90;99.90;;;;;;5088164;28;20203;-82
2020/12/20 01:03:36;;;;;;;7.73;7.03;;;4.90;99.90;;;;;;5088520;28;20204;-83
2020/12/20 01:06:03;;;;;;;7.33;6.73;;;4.90;99.90;;;;;;5087997;28;20208;-82
2020/12/20 01:08:29;;;;;;;7.80;7.00;;;4.90;99.90;;;;;;5088166;28;20362;-82
2020/12/20 01:10:56;;;;;;;7.90;7.20;;;4.80;99.90;;;;;;5088615;28;20234;-82
2020/12/20 01:13:22;;;;;;;7.80;7.00;;;4.80;99.90;;;;;;5088119;28;20229;-82
2020/12/20 01:15:48;;;;;;;7.60;6.90;;;4.80;99.90;;;;;;5088528;28;20464;-82
2020/12/20 01:18:15;;;;;;;8.00;7.20;;;4.80;99.90;;;;;;5087983;28;20198;-81
2020/12/20 01:20:42;;;;;;;7.20;6.60;;;4.70;99.90;;;;;;5087936;28;20301;-81
2020/12/20 01:23:09;;;;;;;8.20;7.40;;;4.70;99.90;;;;;;5088142;28;20830;-81
2020/12/20 01:25:35;;;;;;;8.23;7.00;;;4.70;99.90;;;;;;5088473;28;20202;-81
2020/12/20 01:28:01;;;;;;;8.53;7.63;;;4.60;99.90;;;;;;5088604;28;20236;-81
2020/12/20 01:30:28;;;;;;;8.10;7.30;;;4.60;99.90;;;;;;5088031;28;20203;-81
2020/12/20 01:32:54;;;;;;;8.00;7.20;;;4.60;99.90;;;;;;5088022;28;20329;-78
2020/12/20 01:35:20;;;;;;;8.23;7.43;;;4.60;99.90;;;;;;5092484;28;20217;-78
2020/12/20 01:37:48;;;;;;;8.57;7.67;;;4.60;99.90;;;;;;5092411;28;20209;-79
2020/12/20 01:40:14;;;;;;;8.67;7.87;;;4.60;99.90;;;;;;5092468;28;20202;-79
2020/12/20 01:42:40;;;;;;;8.33;7.53;;;4.60;99.90;;;;;;5092426;28;20204;-79
2020/12/20 01:45:07;;;;;;;8.33;7.53;;;4.50;99.90;;;;;;5092550;28;20207;-79
2020/12/20 01:47:34;;;;;;;8.23;7.40;;;4.50;99.90;;;;;;5091847;28;20199;-79
2020/12/20 01:50:01;;;;;;;8.53;7.70;;;4.50;99.90;;;;;;5091850;28;20294;-80
2020/12/20 01:52:29;;;;;;;8.10;7.40;;;4.50;99.90;;;;;;5092335;28;20320;-81
2020/12/20 01:55:00;;;;;;;7.70;7.00;;;4.50;99.90;;;;;;5091002;28;20244;-79
2020/12/20 01:57:26;;;;;;;8.37;7.03;;;4.50;99.90;;;;;;5092160;28;20684;-79
2020/12/20 01:59:53;;;;;;;7.80;7.00;;;4.50;99.90;;;;;;5092458;28;20208;-79
2020/12/20 02:02:20;;;;;;;8.60;7.80;;;4.50;99.90;;;;;;5091635;28;20671;-80
2020/12/20 02:04:47;;;;;;;7.87;7.07;;;4.50;99.90;;;;;;5091591;28;20211;-79
2020/12/20 02:07:14;;;;;;;8.30;7.50;;;4.60;99.90;;;;;;5092043;28;20240;-79
2020/12/20 02:09:41;;;;;;;7.63;6.87;;;4.60;99.90;;;;;;5091657;28;20300;-81
2020/12/20 02:12:08;;;;;;;8.07;7.27;;;4.60;99.90;;;;;;5091225;28;21004;-80
2020/12/20 02:14:34;;;;;;;9.17;7.67;;;4.60;99.90;;;;;;5091903;28;20302;-79
2020/12/20 02:17:01;;;;;;;8.37;7.57;;;4.60;99.90;;;;;;5091648;28;20234;-80
2020/12/20 02:19:27;;;;;;;8.13;7.33;;;4.60;99.90;;;;;;5091722;28;20203;-80
2020/12/20 02:21:55;;;;;;;8.20;7.40;;;4.70;99.90;;;;;;5091661;28;20912;-80
2020/12/20 02:24:21;;;;;;;8.17;7.17;;;4.70;99.90;;;;;;5091303;28;20653;-80
2020/12/20 02:26:47;;;;;;;7.90;7.20;;;4.70;99.90;;;;;;5091709;28;20225;-80
2020/12/20 02:29:14;;;;;;;7.97;7.17;;;4.70;99.90;;;;;;5091196;28;20716;-80
2020/12/20 02:31:41;;;;;;;8.20;7.40;;;4.70;99.90;;;;;;5091336;28;20236;-80
2020/12/20 02:34:09;;;;;;;8.20;7.40;;;4.70;99.90;;;;;;5091227;28;20216;-81
2020/12/20 02:36:37;;;;;;;8.40;7.53;;;4.70;99.90;;;;;;5091357;28;20211;-78
2020/12/20 02:39:04;;;;;;;9.40;8.37;;;4.70;99.90;;;;;;5091051;28;20209;-79
2020/12/20 02:41:31;;;;;;;7.73;7.00;;;4.70;99.90;;;;;;5090884;28;20228;-79
2020/12/20 02:43:58;;;;;;;7.90;7.10;;;4.70;99.90;;;;;;5090915;28;20220;-78
2020/12/20 02:46:25;;;;;;;8.60;7.70;;;4.70;99.90;;;;;;5090724;28;20212;-79
2020/12/20 02:48:51;;;;;;;8.40;7.60;;;4.80;99.90;;;;;;5091307;28;20207;-79
2020/12/20 02:51:17;;;;;;;9.10;8.20;;;4.80;99.90;;;;;;5090695;28;20226;-78
2020/12/20 02:53:45;;;;;;;8.93;8.03;;;4.70;99.90;;;;;;5090927;28;20241;-79
2020/12/20 02:56:13;;;;;;;8.30;7.50;;;4.80;99.90;;;;;;5090877;28;20255;-81
2020/12/20 02:58:39;;;;;;;7.97;7.17;;;4.70;99.90;;;;;;5091271;28;20608;-80
2020/12/20 03:01:05;;;;;;;9.00;8.20;;;4.70;99.90;;;;;;5090753;28;20202;-81
2020/12/20 03:03:32;;;;;;;8.33;7.53;;;4.70;99.90;;;;;;5090583;28;20259;-81
2020/12/20 03:05:58;;;;;;;8.73;7.93;;;4.70;99.90;;;;;;5090803;28;20255;-80
2020/12/20 03:08:24;;;;;;;8.47;7.67;;;4.70;99.90;;;;;;5090564;28;20302;-81
2020/12/20 03:10:51;;;;;;;8.33;7.53;;;4.60;99.90;;;;;;5091340;28;20221;-80
2020/12/20 03:13:18;;;;;;;8.53;7.63;;;4.60;99.90;;;;;;5091043;28;20281;-80
2020/12/20 03:15:44;;;;;;;14.50;11.10;;;4.60;99.90;;;;;;5090498;28;20661;-80
2020/12/20 03:18:11;;;;;;;9.50;8.50;;;4.60;99.90;;;;;;5090494;28;20257;-80
2020/12/20 03:20:37;;;;;;;12.03;10.73;;;4.60;99.90;;;;;;5090493;28;20287;-80
2020/12/20 03:23:04;;;;;;;15.80;12.57;;;4.60;99.90;;;;;;5090435;28;20476;-79
2020/12/20 03:25:31;;;;;;;15.60;12.13;;;4.60;99.90;;;;;;5090412;28;20673;-79
2020/12/20 03:27:57;;;;;;;16.63;13.40;;;4.60;99.90;;;;;;5090583;28;20261;-80
2020/12/20 03:30:25;;;;;;;14.77;12.20;;;4.50;99.90;;;;;;5090464;28;20245;-79
2020/12/20 03:32:51;;;;;;;25.33;17.13;;;4.50;99.90;;;;;;5090255;28;20574;-80
2020/12/20 03:35:18;;;;;;;12.77;10.70;;;4.50;99.90;;;;;;5090128;28;20212;-80
2020/12/20 03:37:49;;;;;;;9.87;8.87;;;4.50;99.90;;;;;;5089864;28;20300;-80
2020/12/20 03:40:15;;;;;;;9.97;8.97;;;4.50;99.90;;;;;;5090202;28;20202;-81
2020/12/20 03:42:42;;;;;;;11.60;10.40;;;4.50;99.90;;;;;;5090241;28;20198;-81
2020/12/20 03:45:08;;;;;;;9.60;8.60;;;4.50;99.90;;;;;;5089672;28;20235;-80
2020/12/20 03:47:36;;;;;;;9.20;8.30;;;4.50;99.90;;;;;;5090231;28;20623;-80
2020/12/20 03:50:02;;;;;;;9.40;8.40;;;4.50;99.90;;;;;;5089604;28;20249;-81
2020/12/20 03:52:28;;;;;;;9.43;8.43;;;4.50;99.90;;;;;;5089631;28;20291;-80
2020/12/20 03:54:55;;;;;;;9.77;8.77;;;4.50;99.90;;;;;;5089336;28;20279;-81
2020/12/20 03:57:21;;;;;;;8.70;7.67;;;4.50;99.90;;;;;;5089000;28;20210;-81
2020/12/20 03:59:47;;;;;;;9.23;8.30;;;4.50;99.90;;;;;;5089734;28;20563;-81
2020/12/20 04:02:14;;;;;;;9.90;8.90;;;4.50;99.90;;;;;;5089008;28;20205;-82
2020/12/20 04:04:41;;;;;;;8.70;7.90;;;4.50;99.90;;;;;;5089817;28;20206;-81
2020/12/20 04:07:07;;;;;;;9.10;8.20;;;4.50;99.90;;;;;;5089541;28;20210;-82
2020/12/20 04:09:34;;;;;;;10.63;9.13;;;4.50;99.90;;;;;;5089798;28;20293;-78
2020/12/20 04:12:01;;;;;;;9.67;8.57;;;4.30;99.90;;;;;;5088911;28;20242;-79
2020/12/20 04:14:28;;;;;;;9.17;8.27;;;4.40;99.90;;;;;;5089397;28;20260;-79
2020/12/20 04:16:54;;;;;;;9.00;8.10;;;4.40;99.90;;;;;;5089607;28;20297;-79
2020/12/20 04:19:21;;;;;;;8.83;7.93;;;4.40;99.90;;;;;;5089171;28;20297;-79
2020/12/20 04:21:48;;;;;;;9.40;8.40;;;4.40;99.90;;;;;;5089212;28;20708;-78
2020/12/20 04:24:15;;;;;;;9.60;8.57;;;4.40;99.90;;;;;;5089341;28;20211;-78
2020/12/20 04:26:42;;;;;;;8.70;7.90;;;4.40;99.90;;;;;;5089239;28;20213;-79
2020/12/20 04:29:08;;;;;;;9.90;7.97;;;4.40;99.90;;;;;;5089172;28;20205;-79
2020/12/20 04:31:35;;;;;;;9.40;8.10;;;4.40;99.90;;;;;;5088907;28;20701;-78
2020/12/20 04:34:01;;;;;;;9.60;8.60;;;4.40;99.90;;;;;;5088745;28;20665;-78
2020/12/20 04:36:28;;;;;;;8.43;7.63;;;4.40;99.90;;;;;;5088849;28;20242;-79
2020/12/20 04:38:55;;;;;;;8.47;7.67;;;4.40;99.90;;;;;;5089195;28;20211;-78
2020/12/20 04:41:23;;;;;;;8.90;8.00;;;4.40;99.90;;;;;;5088545;28;20210;-79
2020/12/20 04:43:50;;;;;;;9.07;8.03;;;4.30;99.90;;;;;;5088649;28;20216;-79
2020/12/20 04:46:18;;;;;;;9.07;8.17;;;4.30;99.90;;;;;;5088222;28;20203;-78
2020/12/20 04:48:47;;;;;;;9.47;8.43;;;4.30;99.90;;;;;;5088261;28;20203;-79
2020/12/20 04:51:14;;;;;;;8.90;8.10;;;4.40;99.90;;;;;;5088580;28;20269;-81
2020/12/20 04:53:41;;;;;;;9.10;8.13;;;4.40;99.90;;;;;;5088431;28;20593;-81
2020/12/20 04:56:10;;;;;;;9.73;7.83;;;4.30;99.90;;;;;;5088451;28;20206;-81
2020/12/20 04:58:37;;;;;;;8.70;7.80;;;4.30;99.90;;;;;;5088821;28;20292;-79
2020/12/20 05:01:05;;;;;;;8.67;7.87;;;4.30;99.90;;;;;;5088426;28;20226;-79
2020/12/20 05:03:32;;;;;;;8.83;8.03;;;4.30;99.90;;;;;;5088618;28;20250;-81
2020/12/20 05:05:58;;;;;;;9.53;8.63;;;4.30;99.90;;;;;;5088611;28;20213;-81
2020/12/20 05:08:25;;;;;;;9.27;8.37;;;4.30;99.90;;;;;;5087623;28;20212;-77
2020/12/20 05:10:52;;;;;;;9.90;8.90;;;4.30;99.90;;;;;;5088773;28;20200;-78
2020/12/20 05:13:21;;;;;;;9.37;8.47;;;4.30;99.90;;;;;;5088097;28;20238;-80
2020/12/20 05:15:48;;;;;;;9.73;8.10;;;4.30;99.90;;;;;;5088417;28;20215;-82
2020/12/20 05:18:15;;;;;;;9.70;8.57;;;4.30;99.90;;;;;;5088667;28;20206;-80
2020/12/20 05:20:44;;;;;;;9.17;8.27;;;4.30;99.90;;;;;;5088612;28;20726;-80
2020/12/20 05:23:11;;;;;;;9.27;8.37;;;4.30;99.90;;;;;;5088437;28;20298;-79
2020/12/20 05:25:39;;;;;;;9.33;8.23;;;4.30;99.90;;;;;;5088642;28;20290;-80
2020/12/20 05:28:14;;;;;;;9.67;8.67;;;4.30;99.90;;;;;;5088851;28;20302;-81
2020/12/20 05:30:43;;;;;;;9.17;8.27;;;4.30;99.90;;;;;;5088403;28;20218;-80
2020/12/20 05:33:10;;;;;;;9.63;8.63;;;4.20;99.90;;;;;;5088174;28;20251;-80
2020/12/20 05:35:37;;;;;;;9.43;8.50;;;4.20;99.90;;;;;;5088459;28;20293;-80
2020/12/20 05:38:05;;;;;;;9.77;8.70;;;4.20;99.90;;;;;;5088314;28;20222;-80
2020/12/20 05:40:33;;;;;;;9.77;8.80;;;4.20;99.90;;;;;;5088630;28;20330;-79
2020/12/20 05:43:01;;;;;;;9.43;8.40;;;4.20;99.90;;;;;;5088088;28;20259;-80
2020/12/20 05:45:30;;;;;;;9.87;8.87;;;4.20;99.90;;;;;;5088294;28;20309;-78
2020/12/20 05:47:58;;;;;;;9.70;8.70;;;4.10;99.90;;;;;;5088153;28;20210;-78
2020/12/20 05:50:28;;;;;;;9.43;8.50;;;4.10;99.90;;;;;;5088407;28;20293;-78
2020/12/20 05:53:05;;;;;;;9.43;8.53;;;4.10;99.90;;;;;;5087881;28;20571;-78
2020/12/20 05:55:38;;;;;;;9.93;8.93;;;4.10;99.90;;;;;;5088164;28;20230;-79
2020/12/20 05:58:13;;;;;;;10.07;8.73;;;4.10;99.90;;;;;;5087906;28;20203;-78
2020/12/20 06:00:41;;;;;;;11.33;9.23;;;4.00;99.90;;;;;;5088137;28;20357;-78
2020/12/20 06:03:09;;;;;;;9.90;8.90;;;4.00;99.90;;;;;;5087717;28;20210;-78
2020/12/20 06:05:38;;;;;;;10.73;9.63;;;3.90;99.90;;;;;;5087936;28;20210;-79
2020/12/20 06:08:09;;;;;;;11.77;9.37;;;3.90;99.90;;;;;;5087790;28;20270;-80
2020/12/20 06:10:39;;;;;;;10.47;9.47;;;3.90;99.90;;;;;;5087825;28;20198;-79
2020/12/20 06:13:10;;;;;;;9.83;8.83;;;3.90;99.90;;;;;;5087327;28;20237;-79
2020/12/20 06:15:38;;;;;;;11.30;9.77;;;3.80;99.90;;;;;;5088110;28;20703;-78
2020/12/20 06:18:12;;;;;;;10.80;9.50;;;3.80;99.90;;;;;;5087464;28;20210;-78
2020/12/20 06:20:53;;;;;;;11.23;9.40;;;3.80;99.90;;;;;;5090788;28;20187;-79
2020/12/20 06:23:24;;;;;;;11.20;9.77;;;3.80;99.90;;;;;;5091553;28;20270;-79
2020/12/20 06:25:52;;;;;;;10.30;9.20;;;3.80;99.90;;;;;;5091375;28;20213;-79
2020/12/20 06:28:22;;;;;;;10.97;9.87;;;3.80;99.90;;;;;;5091434;28;20259;-79
2020/12/20 06:30:49;;;;;;;11.23;10.00;;;3.70;99.90;;;;;;5091189;28;20203;-79
2020/12/20 06:33:25;;;;;;;10.40;9.30;;;3.70;99.90;;;;;;5091020;28;20225;-79
2020/12/20 06:35:52;;;;;;;10.77;9.53;;;3.70;99.90;;;;;;5091257;28;20209;-79
2020/12/20 06:38:23;;;;;;;11.60;10.17;;;3.70;99.90;;;;;;5091421;28;20238;-80
2020/12/20 06:40:50;;;;;;;12.40;10.00;;;3.70;99.90;;;;;;5090721;28;20199;-80
2020/12/20 06:43:29;;;;;;;11.13;10.03;;;3.60;99.90;;;;;;5090866;28;20301;-79
2020/12/20 06:45:56;;;;;;;13.23;10.97;;;3.60;99.90;;;;;;5091486;28;20248;-78
2020/12/20 06:48:35;;;;;;;11.53;10.27;;;3.60;99.90;;;;;;5090542;28;20207;-77
2020/12/20 06:51:02;;;;;;;11.33;10.03;;;3.60;99.90;;;;;;5091029;28;20679;-82
2020/12/20 06:53:59;;;;;;;12.47;10.73;;;3.50;99.90;;;;;;5090597;28;20793;-81
2020/12/20 06:56:25;;;;;;;11.13;9.73;;;3.50;99.90;;;;;;5027934;28;20280;-82
2020/12/20 06:58:53;;;;;;;10.87;9.77;;;3.60;99.90;;;;;;5076195;28;20622;-81
2020/12/20 07:01:36;;;;;;;12.93;11.10;;;3.50;99.90;;;;;;5090418;28;20252;-80
2020/12/20 07:04:03;;;;;;;12.33;11.03;;;3.50;99.90;;;;;;5090757;28;20203;-80
2020/12/20 07:06:30;;;;;;;12.03;10.47;;;3.50;99.90;;;;;;5090355;28;20302;-81
2020/12/20 07:08:58;;;;;;;12.23;10.80;;;3.50;99.90;;;;;;5090828;28;20199;-81
2020/12/20 07:11:27;;;;;;;11.57;10.37;;;3.50;99.90;;;;;;5090555;28;20203;-82
2020/12/20 07:13:54;;;;;;;13.17;11.00;;;3.50;99.90;;;;;;5090709;28;20297;-82
2020/12/20 07:16:22;;;;;;;13.47;11.30;;;3.50;99.90;;;;;;5090797;28;20212;-83
2020/12/20 07:18:54;;;;;;;12.53;10.90;;;3.50;99.90;;;;;;5090625;28;20293;-79
2020/12/20 07:22:00;;;;;;;12.10;10.80;;;3.50;99.90;;;;;;5090082;28;20301;-79
2020/12/20 07:24:29;;;;;;;12.57;10.90;;;3.60;99.90;;;;;;5083230;28;20230;-79
2020/12/20 07:27:00;;;;;;;12.57;11.27;;;3.60;99.90;;;;;;5090487;28;20295;-80
2020/12/20 07:29:27;;;;;;;12.13;10.93;;;3.60;99.90;;;;;;5089815;28;20641;-80
2020/12/20 07:31:55;;;;;;;13.33;11.47;;;3.60;99.90;;;;;;5089071;28;20242;-79
2020/12/20 07:34:23;;;;;;;12.73;11.43;;;3.60;99.90;;;;;;5090119;28;20226;-80
2020/12/20 07:36:50;;;;;;;14.37;12.10;;;3.60;99.90;;;;;;5090121;28;20661;-79
2020/12/20 07:39:16;;;;;;;14.40;11.80;;;3.50;99.90;;;;;;5089869;28;20207;-79
2020/12/20 07:41:45;;;;;;;13.20;11.87;;;3.50;99.90;;;;;;5089854;28;20730;-81
2020/12/20 07:44:12;;;;;;;13.87;11.53;;;3.60;99.90;;;;;;5090061;28;20204;-81
2020/12/20 07:46:39;;;;;;;14.57;12.23;;;3.50;99.90;;;;;;5089884;28;20211;-81
2020/12/20 07:49:07;;;;;;;14.60;12.47;;;3.50;99.90;;;;;;5089729;28;20340;-81
2020/12/20 07:51:34;;;;;;;13.47;11.27;;;3.60;99.90;;;;;;5089730;28;20281;-81
2020/12/20 07:54:06;;;;;;;13.17;11.67;;;3.60;99.90;;;;;;5089323;28;20349;-80
2020/12/20 07:56:34;;;;;;;14.43;12.10;;;3.50;99.90;;;;;;5089512;28;20241;-80
2020/12/20 07:59:03;;;;;;;13.70;12.03;;;3.60;99.90;;;;;;5089093;28;20728;-80
2020/12/20 08:01:30;;;;;;;14.00;12.00;;;3.60;99.90;;;;;;5089541;28;20298;-80
2020/12/20 08:04:07;;;;;;;13.30;11.97;;;3.60;99.90;;;;;;5089406;28;20295;-80
2020/12/20 08:06:35;;;;;;;14.57;12.13;;;3.60;99.90;;;;;;5089152;28;20677;-81
2020/12/20 08:09:04;;;;;;;13.50;11.83;;;3.60;99.90;;;;;;5088977;28;20217;-82
2020/12/20 08:11:32;;;;;;;14.23;11.70;;;3.60;99.90;;;;;;5089116;28;20958;-81
2020/12/20 08:14:00;;;;;;;14.73;12.13;;;3.50;99.90;;;;;;5089080;28;20220;-81
2020/12/20 08:16:28;;;;;;;15.53;13.03;;;3.50;99.90;;;;;;5089142;28;20238;-82
2020/12/20 08:18:58;;;;;;;13.23;11.80;;;3.50;99.90;;;;;;5089000;28;20203;-81
2020/12/20 08:21:36;;;;;;;14.57;12.67;;;3.40;99.90;;;;;;5089031;28;20378;-82
2020/12/20 08:24:02;;;;;;;13.73;11.93;;;3.50;99.90;;;;;;5088962;28;20191;-80
2020/12/20 08:26:30;;;;;;;15.43;13.07;;;3.60;99.90;;;;;;5089017;28;20202;-80
2020/12/20 08:28:57;;;;;;;13.30;12.00;;;3.60;99.90;;;;;;5089393;28;20293;-82
2020/12/20 08:31:29;;;;;;;14.73;12.30;;;3.60;99.90;;;;;;5088552;28;20229;-81
2020/12/20 08:33:55;;;;;;;13.40;12.00;;;3.60;99.90;;;;;;5089084;28;20195;-81
2020/12/20 08:36:22;;;;;;;14.00;12.37;;;3.50;99.90;;;;;;5088682;28;20655;-81
2020/12/20 08:38:49;;;;;;;16.73;13.17;;;3.70;99.90;;;;;;5088771;28;20207;-81
2020/12/20 08:41:23;;;;;;;14.67;11.97;;;3.80;99.90;;;;;;5088617;28;20210;-81
2020/12/20 08:44:01;;;;;;;14.80;12.27;;;3.80;99.90;;;;;;5088013;28;20201;-81
2020/12/20 08:46:30;;;;;;;13.93;12.33;;;3.90;99.90;;;;;;5094144;28;20274;-81
2020/12/20 08:49:13;;;;;;;14.30;11.97;;;4.00;99.90;;;;;;5097617;28;20276;-82
2020/12/20 08:51:40;;;;;;;12.77;11.43;;;4.00;99.90;;;;;;5088126;28;20986;-82
2020/12/20 08:54:06;;;;;;;14.47;12.40;;;4.10;99.90;;;;;;5087907;28;20319;-81
2020/12/20 08:56:33;;;;;;;13.67;11.07;;;4.20;99.90;;;;;;5088035;28;20209;-82
2020/12/20 08:58:59;;;;;;;13.67;12.07;;;4.30;99.90;;;;;;5088421;28;20251;-81
2020/12/20 09:01:26;;;;;;;12.67;11.37;;;4.40;99.90;;;;;;5087972;28;20322;-82
2020/12/20 09:03:54;;;;;;;13.43;11.37;;;4.40;99.90;;;;;;5088309;28;20195;-82
2020/12/20 09:06:21;;;;;;;12.13;10.80;;;4.60;99.90;;;;;;5088104;28;20221;-82
2020/12/20 09:08:47;;;;;;;11.63;10.43;;;4.60;99.90;;;;;;5088253;28;20209;-81
2020/12/20 09:11:24;;;;;;;11.87;10.60;;;4.70;99.90;;;;;;5088126;28;20216;-80
2020/12/20 09:13:51;;;;;;;13.03;11.20;;;4.70;99.90;;;;;;5088242;28;20550;-80
2020/12/20 09:16:17;;;;;;;13.93;11.43;;;4.80;99.90;;;;;;5088624;28;20206;-81
2020/12/20 09:18:44;;;;;;;12.43;11.13;;;4.90;99.90;;;;;;5084232;28;20728;-82
2020/12/20 09:21:11;;;;;;;12.27;10.97;;;5.00;99.90;;;;;;5082419;28;20263;-81
2020/12/20 09:23:37;;;;;;;13.97;11.50;;;5.10;99.90;;;;;;5082202;28;20207;-81
2020/12/20 09:26:05;;;;;;;12.33;11.03;;;5.10;99.90;;;;;;5082809;28;20202;-82
2020/12/20 09:28:33;;;;;;;12.63;10.83;;;5.20;99.90;;;;;;5081811;28;20694;-82
2020/12/20 09:31:00;;;;;;;13.60;11.17;;;5.20;99.90;;;;;;5086490;28;20592;-82
2020/12/20 09:33:29;;;;;;;12.23;10.83;;;5.30;99.90;;;;;;5084604;28;20230;-82
2020/12/20 09:36:00;;;;;;;12.57;11.27;;;5.40;99.90;;;;;;5100786;28;20652;-82
2020/12/20 09:38:30;;;;;;;11.67;10.47;;;5.40;99.90;;;;;;5105340;28;20317;-81
2020/12/20 09:41:02;;;;;;;11.97;10.73;;;5.50;99.90;;;;;;5104383;28;20708;-81
2020/12/20 09:43:28;;;;;;;12.33;11.13;;;5.50;99.90;;;;;;5104518;28;20713;-81
2020/12/20 09:45:56;;;;;;;12.60;11.00;;;5.50;99.90;;;;;;5104038;28;20202;-81
2020/12/20 09:48:22;;;;;;;12.40;11.17;;;5.50;99.90;;;;;;5092404;28;20224;-81
2020/12/20 09:50:49;;;;;;;12.80;11.33;;;5.60;99.90;;;;;;5093365;28;20264;-81
2020/12/20 09:53:15;;;;;;;13.23;11.77;;;5.80;99.90;;;;;;5093406;28;20284;-81
2020/12/20 09:55:42;;;;;;;16.50;14.80;;;5.80;99.90;;;;;;5096330;28;20190;-86
2020/12/20 09:58:10;;;;;;;21.90;19.70;;;5.90;99.90;;;;;;5097124;28;20688;-86
2020/12/20 10:00:37;;;;;;;13.13;11.83;;;6.10;99.90;;;;;;5100670;28;20277;-82
2020/12/20 10:03:06;;;;;;;12.37;11.03;;;6.10;99.90;;;;;;5096119;28;20294;-82
2020/12/20 10:05:33;;;;;;;12.07;10.87;;;6.30;99.90;;;;;;5097216;28;20264;-83
2020/12/20 10:07:59;;;;;;;12.27;10.77;;;6.30;99.90;;;;;;5099927;28;20230;-82
2020/12/20 10:10:26;;;;;;;12.77;10.33;;;6.40;99.90;;;;;;5097505;28;20235;-79
2020/12/20 10:12:54;;;;;;;11.40;10.20;;;6.50;99.90;;;;;;5098173;28;20288;-81
2020/12/20 10:15:20;;;;;;;12.30;11.00;;;6.60;99.90;;;;;;5087721;28;20203;-80
2020/12/20 10:17:48;;;;;;;11.67;10.50;;;6.60;99.90;;;;;;5087460;28;20206;-81
2020/12/20 10:20:14;;;;;;;11.97;10.77;;;6.60;99.90;;;;;;5087703;28;20225;-81
2020/12/20 10:22:40;;;;;;;12.13;10.90;;;6.70;99.90;;;;;;5087444;28;20198;-80
2020/12/20 10:25:07;;;;;;;11.87;10.67;;;6.70;99.90;;;;;;5090315;28;20206;-80
2020/12/20 10:27:33;;;;;;;12.13;10.87;;;6.80;99.90;;;;;;5107522;28;20618;-81
2020/12/20 10:30:00;;;;;;;12.67;10.90;;;6.80;99.90;;;;;;5108036;28;20736;-81
2020/12/20 10:32:27;;;;;;;11.47;10.33;;;6.80;99.90;;;;;;5107759;28;20251;-80
2020/12/20 10:34:53;;;;;;;11.33;10.20;;;6.80;99.90;;;;;;5106879;28;20202;-80
2020/12/20 10:37:19;;;;;;;12.43;11.13;;;6.90;99.90;;;;;;5107402;28;20325;-81
2020/12/20 10:39:46;;;;;;;11.27;10.07;;;7.00;99.90;;;;;;5107378;28;20206;-80
2020/12/20 10:42:13;;;;;;;11.80;10.60;;;7.10;99.90;;;;;;5107665;28;20847;-80
2020/12/20 10:44:40;;;;;;;11.77;10.57;;;7.10;99.90;;;;;;5107394;28;20821;-80
2020/12/20 10:47:07;;;;;;;10.40;9.17;;;7.20;99.90;;;;;;5107486;28;20226;-80
2020/12/20 10:49:34;;;;;;;11.83;10.63;;;7.20;99.90;;;;;;5107355;28;20580;-80
2020/12/20 10:52:01;;;;;;;12.50;10.90;;;7.20;99.90;;;;;;5107533;28;20662;-80
2020/12/20 10:54:29;;;;;;;26.17;18.83;;;7.30;99.90;;;;;;5106453;28;20240;-83
2020/12/20 10:56:58;;;;;;;27.00;22.13;;;7.40;99.90;;;;;;5107842;28;20635;-82
2020/12/20 10:59:26;;;;;;;17.80;15.23;;;7.50;99.90;;;;;;5107162;28;20214;-85
2020/12/20 11:01:53;;;;;;;21.40;19.20;;;7.60;99.90;;;;;;5093535;28;20580;-80
2020/12/20 11:04:20;;;;;;;11.50;10.40;;;7.60;99.90;;;;;;5107074;28;20205;-80
2020/12/20 11:06:46;;;;;;;11.07;9.97;;;7.60;99.90;;;;;;5107079;28;20241;-80
2020/12/20 11:09:13;;;;;;;10.43;9.33;;;7.60;99.90;;;;;;5106860;28;20210;-81
2020/12/20 11:11:39;;;;;;;10.00;9.10;;;7.60;99.90;;;;;;5106792;28;20206;-81
2020/12/20 11:14:06;;;;;;;10.43;9.43;;;7.60;99.90;;;;;;5106838;28;20668;-81
2020/12/20 11:16:32;;;;;;;10.33;9.30;;;7.70;99.90;;;;;;5106441;28;20229;-79
2020/12/20 11:18:59;;;;;;;9.83;8.83;;;7.70;99.90;;;;;;5097204;28;20630;-80
2020/12/20 11:21:26;;;;;;;10.17;9.17;;;7.60;99.90;;;;;;5094536;28;20194;-79
2020/12/20 11:23:52;;;;;;;10.07;9.07;;;7.50;99.90;;;;;;5097438;28;20608;-80
2020/12/20 11:26:21;;;;;;;10.63;9.63;;;7.50;99.90;;;;;;5097036;28;20201;-80
2020/12/20 11:28:49;;;;;;;9.53;8.63;;;7.40;99.90;;;;;;5096214;28;20229;-81
2020/12/20 11:31:17;;;;;;;9.73;8.73;;;7.30;99.90;;;;;;5090889;28;20315;-80
2020/12/20 11:33:44;;;;;;;10.03;8.97;;;7.20;99.90;;;;;;5102255;28;20779;-81
2020/12/20 11:36:15;;;;;;;9.83;8.90;;;7.20;99.90;;;;;;5106599;27;20289;-80
2020/12/20 11:38:43;;;;;;;10.03;9.03;;;7.10;99.90;;;;;;5106825;28;20288;-81
2020/12/20 11:41:10;;;;;;;9.80;8.80;;;7.20;99.90;;;;;;5100597;28;20742;-81
2020/12/20 11:43:36;;;;;;;9.87;8.87;;;7.10;99.90;;;;;;5086442;28;20207;-81
2020/12/20 11:46:03;;;;;;;10.57;9.57;;;7.20;99.90;;;;;;5092401;28;20199;-80
2020/12/20 11:48:29;;;;;;;10.13;9.10;;;7.30;99.90;;;;;;5086687;28;20289;-80
2020/12/20 11:50:57;;;;;;;9.00;8.23;;;7.50;99.90;;;;;;5087015;28;20214;-80
2020/12/20 11:53:24;;;;;;;9.10;8.20;;;7.60;99.90;;;;;;5086703;28;20324;-80
2020/12/20 11:55:51;;;;;;;9.90;8.90;;;7.70;99.90;;;;;;5088751;28;20662;-80
2020/12/20 11:58:18;;;;;;;15.80;12.80;;;7.60;99.90;;;;;;5106567;28;20407;-80
2020/12/20 12:00:45;;;;;;;15.00;13.60;;;7.50;99.90;;;;;;5109891;28;20214;-79
2020/12/20 12:03:13;;;;;;;9.77;8.77;;;7.50;99.90;;;;;;5098861;28;20229;-79
2020/12/20 12:05:40;;;;;;;9.67;8.67;;;7.40;99.90;;;;;;5092433;28;20207;-78
2020/12/20 12:08:07;;;;;;;9.30;8.40;;;7.40;99.90;;;;;;5088694;28;20206;-80
2020/12/20 12:10:33;;;;;;;8.57;7.77;;;7.30;99.90;;;;;;5088261;28;20211;-79
2020/12/20 12:13:01;;;;;;;9.00;8.20;;;7.30;99.90;;;;;;5088664;28;20230;-79
2020/12/20 12:15:27;;;;;;;8.77;7.93;;;7.30;99.90;;;;;;5088783;28;20242;-80
2020/12/20 12:17:55;;;;;;;8.70;7.90;;;7.30;99.90;;;;;;5088190;28;20607;-80
2020/12/20 12:20:21;;;;;;;9.23;8.33;;;7.40;99.90;;;;;;5089083;28;20575;-80
2020/12/20 12:22:48;;;;;;;8.30;7.60;;;7.40;99.90;;;;;;5088767;28;20302;-80
2020/12/20 12:25:14;;;;;;;8.80;7.97;;;7.40;99.90;;;;;;5089159;28;20211;-80
2020/12/20 12:27:43;;;;;;;8.77;7.87;;;7.40;99.90;;;;;;5089127;28;20293;-80
2020/12/20 12:30:11;;;;;;;8.20;7.50;;;7.50;99.90;;;;;;5088781;28;20696;-81
2020/12/20 12:32:38;;;;;;;8.03;7.33;;;7.30;99.90;;;;;;5089015;28;20237;-80
2020/12/20 12:35:05;;;;;;;8.03;7.33;;;7.30;99.90;;;;;;5089148;28;20290;-81
2020/12/20 12:37:32;;;;;;;8.00;7.30;;;7.20;99.90;;;;;;5089137;28;20212;-81
2020/12/20 12:40:00;;;;;;;8.03;7.30;;;7.20;99.90;;;;;;5089071;28;20614;-81
2020/12/20 12:42:26;;;;;;;8.30;7.50;;;7.10;99.90;;;;;;5088843;28;20213;-82
2020/12/20 12:44:53;;;;;;;7.87;7.10;;;7.10;99.90;;;;;;5088692;28;20209;-80
2020/12/20 12:47:21;;;;;;;8.00;7.20;;;7.10;99.90;;;;;;5088750;28;20653;-80
2020/12/20 12:49:48;;;;;;;7.87;7.07;;;7.10;99.90;;;;;;5088702;28;20210;-81
2020/12/20 12:52:14;;;;;;;8.07;7.27;;;7.10;99.90;;;;;;5088454;28;20314;-81